Terminal Aerodrome Forecast
Issued by NWS Charleston, SC

Home | Current Version | Previous Version | Text Only | Print | Product List | Glossary On
Versions: 1 2 3 4 5 6 7 8 9 10 11 12 13
000
FTUS42 KCHS 191100
TAFSAV
TAF
KSAV 191133Z 1912/2012 34005KT P6SM SCT080 BKN250
     FM200600 VRB03KT P6SM -RA SCT035 BKN070=

USA.gov is the U.S. government's official web portal to all federal, state and local government web resources and services.